SKY weather

CLOSED Griffing Sandusky Airport
Sandusky, Ohio, United States

Public forecast

Using degrees Fahrenheit for public forecast. Weather courtesy of forecast.io.

METAR (pilot weather report)

Closest report is Carl R Keller Field, 10.9 nm (20.2 km) WNW. Retrieved 2019/05/26 04:35 UTC (0 seconds ago):

KPCW 260435Z AUTO 22007KT 10SM CLR 21/19 A2996 RMK AO2

TAF (pilot weather forecast)

Forecast is more than 12 hours old.

Closest forecast is Cleveland Hopkins International Airport, 36.2 nm (67.0 km) E. Retrieved 2019/05/25 00:34 UTC (1 day ago):

TAF KCLE 252331Z 2600/2706 23010G18KT P6SM BKN140 FM261200 26006KT P6SM SCT025 BKN035 FM261400 30005KT P6SM BKN020 FM261800 34008KT P6SM SCT025 OVC035 FM270100 03004KT P6SM SCT090